Destinations Bournemouth Airport

Bournemouth Airport (EGHH / BOH)

Flights to Bournemouth Airport

Flight number From ETE Dispatch
SPY-224 EHGG Groningen Airport Eelde 01:30

Flights from Bournemouth Airport

Flight number To ETE Dispatch
SPY-225 EHGG Groningen Airport Eelde 01:45
About

Bournemouth Airport facts

Bournemouth Airport is located in Bournemouth at an elevation of 11.6 meters or 38 feet.

Currently, Speedy Airlines serves 2 flights to and from Bournemouth Airport.

Detailed airport info

Route map

Weather

Current weather

METAR

METAR

Metar data retrieved Sunday, 21 July 2024 at 19:55 UTC

EGHH 211920Z 26007KT 9999 FEW034 18/13 Q1014
Wind Temperature
7 kt 18c